sensor_id;sensor_type;location;lat;lon;timestamp;P1;durP1;ratioP1;P2;durP2;ratioP2
16199;SDS011;8207;52.494;4.654;2023-03-21T00:01:04;21.87;;;12.50;;
16199;SDS011;8207;52.494;4.654;2023-03-21T00:03:32;20.97;;;12.33;;
16199;SDS011;8207;52.494;4.654;2023-03-21T00:06:03;26.53;;;13.57;;
16199;SDS011;8207;52.494;4.654;2023-03-21T00:08:31;23.37;;;12.77;;
16199;SDS011;8207;52.494;4.654;2023-03-21T00:10:58;28.37;;;13.60;;
16199;SDS011;8207;52.494;4.654;2023-03-21T00:13:26;26.97;;;13.67;;
16199;SDS011;8207;52.494;4.654;2023-03-21T00:15:56;18.10;;;11.23;;
16199;SDS011;8207;52.494;4.654;2023-03-21T00:18:23;22.43;;;12.20;;
16199;SDS011;8207;52.494;4.654;2023-03-21T00:20:56;26.50;;;13.70;;
16199;SDS011;8207;52.494;4.654;2023-03-21T00:23:26;26.70;;;12.43;;
16199;SDS011;8207;52.494;4.654;2023-03-21T00:25:53;23.00;;;12.43;;
16199;SDS011;8207;52.494;4.654;2023-03-21T00:28:20;27.33;;;12.60;;
16199;SDS011;8207;52.494;4.654;2023-03-21T00:30:47;29.70;;;13.00;;
16199;SDS011;8207;52.494;4.654;2023-03-21T00:33:15;28.10;;;12.87;;
16199;SDS011;8207;52.494;4.654;2023-03-21T00:35:45;27.70;;;13.00;;
16199;SDS011;8207;52.494;4.654;2023-03-21T00:38:16;29.07;;;12.20;;
16199;SDS011;8207;52.494;4.654;2023-03-21T00:40:45;36.53;;;13.80;;
16199;SDS011;8207;52.494;4.654;2023-03-21T00:43:12;24.03;;;13.37;;
16199;SDS011;8207;52.494;4.654;2023-03-21T00:45:41;25.97;;;13.67;;
16199;SDS011;8207;52.494;4.654;2023-03-21T00:48:08;34.17;;;16.37;;
16199;SDS011;8207;52.494;4.654;2023-03-21T00:50:35;31.87;;;14.47;;
16199;SDS011;8207;52.494;4.654;2023-03-21T00:53:02;33.20;;;15.73;;
16199;SDS011;8207;52.494;4.654;2023-03-21T00:55:30;26.63;;;14.47;;
16199;SDS011;8207;52.494;4.654;2023-03-21T00:57:58;26.20;;;13.90;;
16199;SDS011;8207;52.494;4.654;2023-03-21T01:00:25;22.93;;;13.90;;
16199;SDS011;8207;52.494;4.654;2023-03-21T01:02:52;26.43;;;14.17;;
16199;SDS011;8207;52.494;4.654;2023-03-21T01:05:22;22.03;;;12.67;;
16199;SDS011;8207;52.494;4.654;2023-03-21T01:08:04;22.00;;;12.77;;
16199;SDS011;8207;52.494;4.654;2023-03-21T01:10:31;20.03;;;13.00;;
16199;SDS011;8207;52.494;4.654;2023-03-21T01:13:00;22.17;;;13.63;;
16199;SDS011;8207;52.494;4.654;2023-03-21T01:15:26;27.47;;;15.97;;
16199;SDS011;8207;52.494;4.654;2023-03-21T01:17:53;21.90;;;13.20;;
16199;SDS011;8207;52.494;4.654;2023-03-21T01:20:20;29.33;;;15.90;;
16199;SDS011;8207;52.494;4.654;2023-03-21T01:22:47;27.87;;;15.17;;
16199;SDS011;8207;52.494;4.654;2023-03-21T01:25:14;24.47;;;15.40;;
16199;SDS011;8207;52.494;4.654;2023-03-21T01:27:41;25.17;;;14.43;;
16199;SDS011;8207;52.494;4.654;2023-03-21T01:30:10;20.40;;;13.97;;
16199;SDS011;8207;52.494;4.654;2023-03-21T01:32:37;23.97;;;14.90;;
16199;SDS011;8207;52.494;4.654;2023-03-21T01:35:04;25.20;;;15.27;;
16199;SDS011;8207;52.494;4.654;2023-03-21T01:37:32;20.03;;;13.77;;
16199;SDS011;8207;52.494;4.654;2023-03-21T01:39:59;24.23;;;13.87;;
16199;SDS011;8207;52.494;4.654;2023-03-21T01:42:26;18.57;;;12.87;;
16199;SDS011;8207;52.494;4.654;2023-03-21T01:44:54;21.77;;;12.13;;
16199;SDS011;8207;52.494;4.654;2023-03-21T01:47:23;18.07;;;11.73;;
16199;SDS011;8207;52.494;4.654;2023-03-21T01:49:51;17.60;;;12.00;;
16199;SDS011;8207;52.494;4.654;2023-03-21T01:52:23;15.17;;;11.50;;
16199;SDS011;8207;52.494;4.654;2023-03-21T01:54:54;18.67;;;11.17;;
16199;SDS011;8207;52.494;4.654;2023-03-21T01:57:23;20.20;;;12.27;;
16199;SDS011;8207;52.494;4.654;2023-03-21T01:59:57;15.13;;;10.63;;
16199;SDS011;8207;52.494;4.654;2023-03-21T02:02:38;21.70;;;11.40;;
16199;SDS011;8207;52.494;4.654;2023-03-21T02:05:15;21.33;;;12.47;;
16199;SDS011;8207;52.494;4.654;2023-03-21T02:07:44;22.40;;;11.70;;
16199;SDS011;8207;52.494;4.654;2023-03-21T02:10:12;23.10;;;11.33;;
16199;SDS011;8207;52.494;4.654;2023-03-21T02:12:41;23.97;;;11.67;;
16199;SDS011;8207;52.494;4.654;2023-03-21T02:15:09;22.00;;;12.17;;
16199;SDS011;8207;52.494;4.654;2023-03-21T02:17:39;30.27;;;11.70;;
16199;SDS011;8207;52.494;4.654;2023-03-21T02:20:15;24.47;;;12.53;;
16199;SDS011;8207;52.494;4.654;2023-03-21T02:23:14;22.87;;;12.33;;
16199;SDS011;8207;52.494;4.654;2023-03-21T02:26:13;23.70;;;11.63;;
16199;SDS011;8207;52.494;4.654;2023-03-21T02:29:27;20.47;;;11.77;;
16199;SDS011;8207;52.494;4.654;2023-03-21T02:32:18;25.80;;;13.57;;
16199;SDS011;8207;52.494;4.654;2023-03-21T02:35:01;31.60;;;12.97;;
16199;SDS011;8207;52.494;4.654;2023-03-21T02:37:40;22.23;;;13.23;;
16199;SDS011;8207;52.494;4.654;2023-03-21T02:40:11;20.43;;;12.37;;
16199;SDS011;8207;52.494;4.654;2023-03-21T02:42:50;22.67;;;12.27;;
16199;SDS011;8207;52.494;4.654;2023-03-21T02:45:24;25.03;;;13.00;;
16199;SDS011;8207;52.494;4.654;2023-03-21T02:47:54;32.47;;;13.70;;
16199;SDS011;8207;52.494;4.654;2023-03-21T02:50:30;22.60;;;12.57;;
16199;SDS011;8207;52.494;4.654;2023-03-21T02:53:02;25.90;;;14.13;;
16199;SDS011;8207;52.494;4.654;2023-03-21T02:55:33;23.83;;;13.23;;
16199;SDS011;8207;52.494;4.654;2023-03-21T02:58:02;29.13;;;12.40;;
16199;SDS011;8207;52.494;4.654;2023-03-21T03:00:31;22.33;;;11.30;;
16199;SDS011;8207;52.494;4.654;2023-03-21T03:02:59;21.33;;;10.57;;
16199;SDS011;8207;52.494;4.654;2023-03-21T03:05:28;22.07;;;11.80;;
16199;SDS011;8207;52.494;4.654;2023-03-21T03:08:07;23.23;;;12.50;;
16199;SDS011;8207;52.494;4.654;2023-03-21T03:10:45;26.80;;;12.03;;
16199;SDS011;8207;52.494;4.654;2023-03-21T03:13:27;23.83;;;11.80;;
16199;SDS011;8207;52.494;4.654;2023-03-21T03:16:05;21.37;;;11.23;;
16199;SDS011;8207;52.494;4.654;2023-03-21T03:18:43;25.30;;;13.33;;
16199;SDS011;8207;52.494;4.654;2023-03-21T03:21:17;25.33;;;12.90;;
16199;SDS011;8207;52.494;4.654;2023-03-21T03:23:51;18.27;;;12.67;;
16199;SDS011;8207;52.494;4.654;2023-03-21T03:26:22;20.63;;;13.50;;
16199;SDS011;8207;52.494;4.654;2023-03-21T03:28:52;22.63;;;12.77;;
16199;SDS011;8207;52.494;4.654;2023-03-21T03:31:25;27.40;;;14.37;;
16199;SDS011;8207;52.494;4.654;2023-03-21T03:33:56;25.07;;;14.10;;
16199;SDS011;8207;52.494;4.654;2023-03-21T03:36:28;20.40;;;14.40;;
16199;SDS011;8207;52.494;4.654;2023-03-21T03:39:01;22.00;;;13.63;;
16199;SDS011;8207;52.494;4.654;2023-03-21T03:41:33;25.17;;;14.23;;
16199;SDS011;8207;52.494;4.654;2023-03-21T03:44:06;25.90;;;14.90;;
16199;SDS011;8207;52.494;4.654;2023-03-21T03:46:34;24.13;;;15.23;;
16199;SDS011;8207;52.494;4.654;2023-03-21T03:49:06;32.87;;;16.37;;
16199;SDS011;8207;52.494;4.654;2023-03-21T03:51:40;25.10;;;15.80;;
16199;SDS011;8207;52.494;4.654;2023-03-21T03:54:15;27.33;;;15.37;;
16199;SDS011;8207;52.494;4.654;2023-03-21T03:56:46;26.07;;;16.27;;
16199;SDS011;8207;52.494;4.654;2023-03-21T03:59:14;26.93;;;15.57;;
16199;SDS011;8207;52.494;4.654;2023-03-21T04:01:43;21.63;;;15.47;;
16199;SDS011;8207;52.494;4.654;2023-03-21T04:04:10;32.90;;;16.77;;
16199;SDS011;8207;52.494;4.654;2023-03-21T04:06:37;30.43;;;17.13;;
16199;SDS011;8207;52.494;4.654;2023-03-21T04:09:05;23.20;;;16.23;;
16199;SDS011;8207;52.494;4.654;2023-03-21T04:11:34;24.83;;;15.80;;
16199;SDS011;8207;52.494;4.654;2023-03-21T04:14:01;27.43;;;17.40;;
16199;SDS011;8207;52.494;4.654;2023-03-21T04:16:27;22.43;;;16.60;;
16199;SDS011;8207;52.494;4.654;2023-03-21T04:18:56;27.57;;;17.83;;
16199;SDS011;8207;52.494;4.654;2023-03-21T04:21:23;23.87;;;17.03;;
16199;SDS011;8207;52.494;4.654;2023-03-21T04:23:49;27.93;;;16.20;;
16199;SDS011;8207;52.494;4.654;2023-03-21T04:26:18;27.97;;;17.37;;
16199;SDS011;8207;52.494;4.654;2023-03-21T04:28:47;21.63;;;14.10;;
16199;SDS011;8207;52.494;4.654;2023-03-21T04:31:15;20.83;;;15.47;;
16199;SDS011;8207;52.494;4.654;2023-03-21T04:33:42;19.80;;;13.03;;
16199;SDS011;8207;52.494;4.654;2023-03-21T04:36:12;19.17;;;13.97;;
16199;SDS011;8207;52.494;4.654;2023-03-21T04:38:49;21.20;;;12.50;;
16199;SDS011;8207;52.494;4.654;2023-03-21T04:41:16;17.77;;;11.47;;
16199;SDS011;8207;52.494;4.654;2023-03-21T04:43:43;20.90;;;11.77;;
16199;SDS011;8207;52.494;4.654;2023-03-21T04:46:12;17.57;;;11.60;;
16199;SDS011;8207;52.494;4.654;2023-03-21T04:48:39;17.50;;;11.93;;
16199;SDS011;8207;52.494;4.654;2023-03-21T04:51:06;17.80;;;10.70;;
16199;SDS011;8207;52.494;4.654;2023-03-21T04:53:33;16.77;;;10.43;;
16199;SDS011;8207;52.494;4.654;2023-03-21T04:56:00;19.23;;;11.70;;
16199;SDS011;8207;52.494;4.654;2023-03-21T04:58:26;12.93;;;9.80;;
16199;SDS011;8207;52.494;4.654;2023-03-21T05:00:54;14.20;;;8.77;;
16199;SDS011;8207;52.494;4.654;2023-03-21T05:03:23;17.20;;;9.27;;
16199;SDS011;8207;52.494;4.654;2023-03-21T05:05:49;13.80;;;8.83;;
16199;SDS011;8207;52.494;4.654;2023-03-21T05:08:16;18.23;;;9.53;;
16199;SDS011;8207;52.494;4.654;2023-03-21T05:10:43;18.17;;;10.87;;
16199;SDS011;8207;52.494;4.654;2023-03-21T05:13:10;18.33;;;10.60;;
16199;SDS011;8207;52.494;4.654;2023-03-21T05:15:37;15.37;;;11.77;;
16199;SDS011;8207;52.494;4.654;2023-03-21T05:18:04;22.37;;;12.33;;
16199;SDS011;8207;52.494;4.654;2023-03-21T05:20:37;21.37;;;12.60;;
16199;SDS011;8207;52.494;4.654;2023-03-21T05:23:07;19.77;;;10.87;;
16199;SDS011;8207;52.494;4.654;2023-03-21T05:25:34;15.30;;;10.27;;
16199;SDS011;8207;52.494;4.654;2023-03-21T05:28:02;23.03;;;11.57;;
16199;SDS011;8207;52.494;4.654;2023-03-21T05:30:29;22.50;;;11.87;;
16199;SDS011;8207;52.494;4.654;2023-03-21T05:32:57;19.30;;;12.13;;
16199;SDS011;8207;52.494;4.654;2023-03-21T05:35:25;21.87;;;12.87;;
16199;SDS011;8207;52.494;4.654;2023-03-21T05:37:54;21.13;;;12.47;;
16199;SDS011;8207;52.494;4.654;2023-03-21T05:40:21;20.27;;;12.97;;
16199;SDS011;8207;52.494;4.654;2023-03-21T05:42:48;21.63;;;13.13;;
16199;SDS011;8207;52.494;4.654;2023-03-21T05:45:15;23.97;;;14.43;;
16199;SDS011;8207;52.494;4.654;2023-03-21T05:47:42;22.43;;;14.83;;
16199;SDS011;8207;52.494;4.654;2023-03-21T05:50:09;25.83;;;14.10;;
16199;SDS011;8207;52.494;4.654;2023-03-21T05:52:38;23.53;;;14.47;;
16199;SDS011;8207;52.494;4.654;2023-03-21T05:55:07;21.80;;;12.67;;
16199;SDS011;8207;52.494;4.654;2023-03-21T05:57:34;22.67;;;13.77;;
16199;SDS011;8207;52.494;4.654;2023-03-21T06:00:04;16.73;;;12.00;;
16199;SDS011;8207;52.494;4.654;2023-03-21T06:02:32;19.47;;;13.07;;
16199;SDS011;8207;52.494;4.654;2023-03-21T06:04:59;21.03;;;12.40;;
16199;SDS011;8207;52.494;4.654;2023-03-21T06:07:26;23.63;;;13.03;;
16199;SDS011;8207;52.494;4.654;2023-03-21T06:09:53;22.10;;;12.40;;
16199;SDS011;8207;52.494;4.654;2023-03-21T06:12:21;23.03;;;13.03;;
16199;SDS011;8207;52.494;4.654;2023-03-21T06:14:48;24.00;;;13.47;;
16199;SDS011;8207;52.494;4.654;2023-03-21T06:17:15;23.70;;;13.70;;
16199;SDS011;8207;52.494;4.654;2023-03-21T06:19:42;26.23;;;13.90;;
16199;SDS011;8207;52.494;4.654;2023-03-21T06:22:08;24.30;;;13.53;;
16199;SDS011;8207;52.494;4.654;2023-03-21T06:24:35;22.20;;;14.17;;
16199;SDS011;8207;52.494;4.654;2023-03-21T06:27:02;23.63;;;14.80;;
16199;SDS011;8207;52.494;4.654;2023-03-21T06:29:31;30.93;;;14.87;;
16199;SDS011;8207;52.494;4.654;2023-03-21T06:31:58;24.40;;;14.37;;
16199;SDS011;8207;52.494;4.654;2023-03-21T06:34:25;27.57;;;15.20;;
16199;SDS011;8207;52.494;4.654;2023-03-21T06:36:51;28.43;;;14.40;;
16199;SDS011;8207;52.494;4.654;2023-03-21T06:39:19;22.97;;;14.37;;
16199;SDS011;8207;52.494;4.654;2023-03-21T06:41:46;25.40;;;15.60;;
16199;SDS011;8207;52.494;4.654;2023-03-21T06:44:12;24.67;;;15.77;;
16199;SDS011;8207;52.494;4.654;2023-03-21T06:46:41;29.97;;;17.20;;
16199;SDS011;8207;52.494;4.654;2023-03-21T06:49:08;27.03;;;17.13;;
16199;SDS011;8207;52.494;4.654;2023-03-21T06:51:35;27.13;;;16.30;;
16199;SDS011;8207;52.494;4.654;2023-03-21T06:54:02;26.50;;;16.10;;
16199;SDS011;8207;52.494;4.654;2023-03-21T06:56:28;29.83;;;17.70;;
16199;SDS011;8207;52.494;4.654;2023-03-21T06:58:55;28.37;;;16.40;;
16199;SDS011;8207;52.494;4.654;2023-03-21T07:01:22;27.47;;;17.63;;
16199;SDS011;8207;52.494;4.654;2023-03-21T07:03:53;23.03;;;17.43;;
16199;SDS011;8207;52.494;4.654;2023-03-21T07:06:21;31.80;;;17.90;;
16199;SDS011;8207;52.494;4.654;2023-03-21T07:08:50;24.97;;;16.23;;
16199;SDS011;8207;52.494;4.654;2023-03-21T07:11:18;25.33;;;17.90;;
16199;SDS011;8207;52.494;4.654;2023-03-21T07:13:45;30.90;;;19.40;;
16199;SDS011;8207;52.494;4.654;2023-03-21T07:16:13;28.63;;;18.00;;
16199;SDS011;8207;52.494;4.654;2023-03-21T07:18:40;23.90;;;17.37;;
16199;SDS011;8207;52.494;4.654;2023-03-21T07:21:08;31.33;;;19.77;;
16199;SDS011;8207;52.494;4.654;2023-03-21T07:23:36;31.43;;;18.53;;
16199;SDS011;8207;52.494;4.654;2023-03-21T07:26:03;37.63;;;20.00;;
16199;SDS011;8207;52.494;4.654;2023-03-21T07:28:31;30.10;;;19.80;;
16199;SDS011;8207;52.494;4.654;2023-03-21T07:30:59;31.37;;;19.93;;
16199;SDS011;8207;52.494;4.654;2023-03-21T07:33:55;32.37;;;19.27;;
16199;SDS011;8207;52.494;4.654;2023-03-21T07:36:24;28.10;;;19.10;;
16199;SDS011;8207;52.494;4.654;2023-03-21T07:38:52;33.17;;;20.23;;
16199;SDS011;8207;52.494;4.654;2023-03-21T07:41:19;30.47;;;18.37;;
16199;SDS011;8207;52.494;4.654;2023-03-21T07:43:45;33.60;;;20.30;;
16199;SDS011;8207;52.494;4.654;2023-03-21T07:46:12;30.00;;;19.33;;
16199;SDS011;8207;52.494;4.654;2023-03-21T07:48:39;31.13;;;19.40;;
16199;SDS011;8207;52.494;4.654;2023-03-21T07:51:06;31.97;;;19.40;;
16199;SDS011;8207;52.494;4.654;2023-03-21T07:53:35;38.87;;;21.73;;
16199;SDS011;8207;52.494;4.654;2023-03-21T07:56:01;29.80;;;19.40;;
16199;SDS011;8207;52.494;4.654;2023-03-21T07:58:29;33.23;;;19.90;;
16199;SDS011;8207;52.494;4.654;2023-03-21T08:00:58;27.63;;;18.73;;
16199;SDS011;8207;52.494;4.654;2023-03-21T08:03:26;32.13;;;19.70;;
16199;SDS011;8207;52.494;4.654;2023-03-21T08:05:55;33.27;;;20.20;;
16199;SDS011;8207;52.494;4.654;2023-03-21T08:08:23;30.30;;;19.70;;
16199;SDS011;8207;52.494;4.654;2023-03-21T08:10:52;28.77;;;18.13;;
16199;SDS011;8207;52.494;4.654;2023-03-21T08:13:18;35.73;;;20.20;;
16199;SDS011;8207;52.494;4.654;2023-03-21T08:15:45;30.10;;;18.30;;
16199;SDS011;8207;52.494;4.654;2023-03-21T08:18:12;28.03;;;18.17;;
16199;SDS011;8207;52.494;4.654;2023-03-21T08:20:39;31.83;;;17.40;;
16199;SDS011;8207;52.494;4.654;2023-03-21T08:23:06;32.83;;;19.20;;
16199;SDS011;8207;52.494;4.654;2023-03-21T08:25:33;28.33;;;18.33;;
16199;SDS011;8207;52.494;4.654;2023-03-21T08:28:02;29.53;;;18.53;;
16199;SDS011;8207;52.494;4.654;2023-03-21T08:30:29;28.17;;;16.83;;
16199;SDS011;8207;52.494;4.654;2023-03-21T08:32:56;25.30;;;15.50;;
16199;SDS011;8207;52.494;4.654;2023-03-21T08:35:23;30.07;;;17.20;;
16199;SDS011;8207;52.494;4.654;2023-03-21T08:37:51;30.20;;;16.40;;
16199;SDS011;8207;52.494;4.654;2023-03-21T08:40:18;25.23;;;16.67;;
16199;SDS011;8207;52.494;4.654;2023-03-21T08:42:45;26.60;;;15.00;;
16199;SDS011;8207;52.494;4.654;2023-03-21T08:45:14;26.83;;;14.57;;
16199;SDS011;8207;52.494;4.654;2023-03-21T08:47:42;27.30;;;15.73;;
16199;SDS011;8207;52.494;4.654;2023-03-21T08:50:10;22.60;;;14.70;;
16199;SDS011;8207;52.494;4.654;2023-03-21T08:52:39;27.07;;;14.43;;
16199;SDS011;8207;52.494;4.654;2023-03-21T08:55:07;25.97;;;15.73;;
16199;SDS011;8207;52.494;4.654;2023-03-21T08:57:35;20.80;;;14.60;;
16199;SDS011;8207;52.494;4.654;2023-03-21T09:00:02;24.83;;;15.20;;
16199;SDS011;8207;52.494;4.654;2023-03-21T09:02:35;25.07;;;14.53;;
16199;SDS011;8207;52.494;4.654;2023-03-21T09:05:02;26.23;;;14.97;;
16199;SDS011;8207;52.494;4.654;2023-03-21T09:07:30;24.17;;;14.73;;
16199;SDS011;8207;52.494;4.654;2023-03-21T09:09:58;20.97;;;13.97;;
16199;SDS011;8207;52.494;4.654;2023-03-21T09:12:25;21.67;;;14.57;;
16199;SDS011;8207;52.494;4.654;2023-03-21T09:14:52;22.63;;;13.83;;
16199;SDS011;8207;52.494;4.654;2023-03-21T09:17:19;19.10;;;13.17;;
16199;SDS011;8207;52.494;4.654;2023-03-21T09:19:47;21.83;;;13.33;;
16199;SDS011;8207;52.494;4.654;2023-03-21T09:22:15;19.23;;;12.40;;
16199;SDS011;8207;52.494;4.654;2023-03-21T09:24:42;25.00;;;14.23;;
16199;SDS011;8207;52.494;4.654;2023-03-21T09:27:11;19.03;;;12.50;;
16199;SDS011;8207;52.494;4.654;2023-03-21T09:29:39;17.20;;;11.67;;
16199;SDS011;8207;52.494;4.654;2023-03-21T09:32:07;18.37;;;12.10;;
16199;SDS011;8207;52.494;4.654;2023-03-21T09:34:35;16.70;;;11.73;;
16199;SDS011;8207;52.494;4.654;2023-03-21T09:37:07;15.57;;;11.17;;
16199;SDS011;8207;52.494;4.654;2023-03-21T09:39:37;20.10;;;11.57;;
16199;SDS011;8207;52.494;4.654;2023-03-21T09:42:17;18.27;;;10.97;;
16199;SDS011;8207;52.494;4.654;2023-03-21T09:44:53;15.50;;;10.43;;
16199;SDS011;8207;52.494;4.654;2023-03-21T09:47:30;20.63;;;10.97;;
16199;SDS011;8207;52.494;4.654;2023-03-21T09:50:10;17.93;;;11.20;;
16199;SDS011;8207;52.494;4.654;2023-03-21T09:52:43;15.87;;;10.40;;
16199;SDS011;8207;52.494;4.654;2023-03-21T09:55:15;17.83;;;9.50;;
16199;SDS011;8207;52.494;4.654;2023-03-21T09:57:46;15.40;;;10.33;;
16199;SDS011;8207;52.494;4.654;2023-03-21T10:00:19;14.03;;;10.03;;
16199;SDS011;8207;52.494;4.654;2023-03-21T10:02:51;15.00;;;9.30;;
16199;SDS011;8207;52.494;4.654;2023-03-21T10:05:24;15.10;;;9.93;;
16199;SDS011;8207;52.494;4.654;2023-03-21T10:07:55;17.77;;;9.60;;
16199;SDS011;8207;52.494;4.654;2023-03-21T10:10:30;16.10;;;9.53;;
16199;SDS011;8207;52.494;4.654;2023-03-21T10:13:00;17.17;;;10.10;;
16199;SDS011;8207;52.494;4.654;2023-03-21T10:15:27;14.50;;;9.80;;
16199;SDS011;8207;52.494;4.654;2023-03-21T10:17:55;15.53;;;9.27;;
16199;SDS011;8207;52.494;4.654;2023-03-21T10:20:25;15.70;;;10.50;;
16199;SDS011;8207;52.494;4.654;2023-03-21T10:22:56;16.90;;;10.53;;
16199;SDS011;8207;52.494;4.654;2023-03-21T10:25:25;16.60;;;9.97;;
16199;SDS011;8207;52.494;4.654;2023-03-21T10:27:56;15.50;;;9.23;;
16199;SDS011;8207;52.494;4.654;2023-03-21T10:30:28;16.40;;;9.40;;
16199;SDS011;8207;52.494;4.654;2023-03-21T10:33:05;15.00;;;9.67;;
16199;SDS011;8207;52.494;4.654;2023-03-21T10:35:34;15.57;;;9.53;;
16199;SDS011;8207;52.494;4.654;2023-03-21T10:38:05;13.90;;;9.37;;
16199;SDS011;8207;52.494;4.654;2023-03-21T10:40:36;17.83;;;9.77;;
16199;SDS011;8207;52.494;4.654;2023-03-21T10:46:04;19.57;;;10.03;;
16199;SDS011;8207;52.494;4.654;2023-03-21T10:48:36;16.53;;;10.30;;
16199;SDS011;8207;52.494;4.654;2023-03-21T10:51:05;15.40;;;9.57;;
16199;SDS011;8207;52.494;4.654;2023-03-21T10:53:37;15.77;;;10.17;;
16199;SDS011;8207;52.494;4.654;2023-03-21T10:56:07;13.63;;;9.97;;
16199;SDS011;8207;52.494;4.654;2023-03-21T10:58:37;13.77;;;9.60;;
16199;SDS011;8207;52.494;4.654;2023-03-21T11:01:09;16.00;;;9.77;;
16199;SDS011;8207;52.494;4.654;2023-03-21T11:03:40;19.70;;;10.00;;
16199;SDS011;8207;52.494;4.654;2023-03-21T11:06:11;20.43;;;10.10;;
16199;SDS011;8207;52.494;4.654;2023-03-21T11:08:42;20.33;;;9.30;;
16199;SDS011;8207;52.494;4.654;2023-03-21T11:11:18;16.83;;;10.00;;
16199;SDS011;8207;52.494;4.654;2023-03-21T11:13:47;13.50;;;8.93;;
16199;SDS011;8207;52.494;4.654;2023-03-21T11:16:23;16.77;;;9.50;;
16199;SDS011;8207;52.494;4.654;2023-03-21T11:18:56;18.10;;;10.37;;
16199;SDS011;8207;52.494;4.654;2023-03-21T11:21:26;16.03;;;9.67;;
16199;SDS011;8207;52.494;4.654;2023-03-21T11:23:55;16.03;;;9.70;;
16199;SDS011;8207;52.494;4.654;2023-03-21T11:26:24;19.27;;;10.37;;
16199;SDS011;8207;52.494;4.654;2023-03-21T11:28:53;19.17;;;11.00;;
16199;SDS011;8207;52.494;4.654;2023-03-21T11:31:21;18.33;;;10.20;;
16199;SDS011;8207;52.494;4.654;2023-03-21T11:33:51;18.33;;;9.80;;
16199;SDS011;8207;52.494;4.654;2023-03-21T11:36:24;13.23;;;9.87;;
16199;SDS011;8207;52.494;4.654;2023-03-21T11:39:02;17.40;;;10.23;;
16199;SDS011;8207;52.494;4.654;2023-03-21T11:41:39;13.53;;;9.40;;
16199;SDS011;8207;52.494;4.654;2023-03-21T11:44:22;15.97;;;9.17;;
16199;SDS011;8207;52.494;4.654;2023-03-21T11:46:52;16.20;;;8.40;;
16199;SDS011;8207;52.494;4.654;2023-03-21T11:49:19;17.50;;;9.40;;
16199;SDS011;8207;52.494;4.654;2023-03-21T11:51:47;16.20;;;8.83;;
16199;SDS011;8207;52.494;4.654;2023-03-21T11:54:25;21.07;;;9.60;;
16199;SDS011;8207;52.494;4.654;2023-03-21T11:56:58;13.23;;;8.33;;
16199;SDS011;8207;52.494;4.654;2023-03-21T11:59:34;16.23;;;8.43;;
16199;SDS011;8207;52.494;4.654;2023-03-21T12:02:35;12.60;;;6.87;;
16199;SDS011;8207;52.494;4.654;2023-03-21T12:05:22;12.27;;;6.17;;
16199;SDS011;8207;52.494;4.654;2023-03-21T12:07:53;13.13;;;7.30;;
16199;SDS011;8207;52.494;4.654;2023-03-21T12:10:41;11.93;;;6.63;;
16199;SDS011;8207;52.494;4.654;2023-03-21T12:13:15;11.43;;;6.33;;
16199;SDS011;8207;52.494;4.654;2023-03-21T12:15:56;15.83;;;6.17;;
16199;SDS011;8207;52.494;4.654;2023-03-21T12:18:47;12.67;;;4.90;;
16199;SDS011;8207;52.494;4.654;2023-03-21T12:21:29;12.17;;;5.20;;
16199;SDS011;8207;52.494;4.654;2023-03-21T12:24:00;11.67;;;5.70;;
16199;SDS011;8207;52.494;4.654;2023-03-21T12:26:34;10.97;;;5.63;;
16199;SDS011;8207;52.494;4.654;2023-03-21T12:29:17;10.43;;;5.90;;
16199;SDS011;8207;52.494;4.654;2023-03-21T12:32:04;11.20;;;5.40;;
16199;SDS011;8207;52.494;4.654;2023-03-21T12:37:46;9.33;;;6.50;;
16199;SDS011;8207;52.494;4.654;2023-03-21T12:40:21;11.07;;;6.13;;
16199;SDS011;8207;52.494;4.654;2023-03-21T12:43:21;15.17;;;7.20;;
16199;SDS011;8207;52.494;4.654;2023-03-21T12:45:54;13.67;;;7.93;;
16199;SDS011;8207;52.494;4.654;2023-03-21T12:48:35;16.07;;;7.30;;
16199;SDS011;8207;52.494;4.654;2023-03-21T12:51:07;11.07;;;7.13;;
16199;SDS011;8207;52.494;4.654;2023-03-21T12:53:43;11.83;;;7.30;;
16199;SDS011;8207;52.494;4.654;2023-03-21T12:56:18;13.07;;;7.03;;
16199;SDS011;8207;52.494;4.654;2023-03-21T12:58:50;12.87;;;6.97;;
16199;SDS011;8207;52.494;4.654;2023-03-21T13:01:22;11.40;;;7.80;;
16199;SDS011;8207;52.494;4.654;2023-03-21T13:04:03;15.90;;;8.17;;
16199;SDS011;8207;52.494;4.654;2023-03-21T13:06:53;12.40;;;6.93;;
16199;SDS011;8207;52.494;4.654;2023-03-21T13:09:25;10.07;;;6.93;;
16199;SDS011;8207;52.494;4.654;2023-03-21T13:11:55;10.67;;;7.50;;
16199;SDS011;8207;52.494;4.654;2023-03-21T13:14:26;17.77;;;8.13;;
16199;SDS011;8207;52.494;4.654;2023-03-21T13:16:59;15.00;;;7.00;;
16199;SDS011;8207;52.494;4.654;2023-03-21T13:19:33;11.50;;;7.03;;
16199;SDS011;8207;52.494;4.654;2023-03-21T13:22:06;14.37;;;7.57;;
16199;SDS011;8207;52.494;4.654;2023-03-21T13:24:41;16.17;;;7.97;;
16199;SDS011;8207;52.494;4.654;2023-03-21T13:27:17;14.47;;;7.17;;
16199;SDS011;8207;52.494;4.654;2023-03-21T13:29:51;12.40;;;7.40;;
16199;SDS011;8207;52.494;4.654;2023-03-21T13:32:24;14.10;;;7.17;;
16199;SDS011;8207;52.494;4.654;2023-03-21T13:34:54;14.53;;;7.40;;
16199;SDS011;8207;52.494;4.654;2023-03-21T13:37:24;11.27;;;7.37;;
16199;SDS011;8207;52.494;4.654;2023-03-21T13:39:55;11.50;;;7.77;;
16199;SDS011;8207;52.494;4.654;2023-03-21T13:42:28;25.40;;;9.07;;
16199;SDS011;8207;52.494;4.654;2023-03-21T13:44:59;26.10;;;8.53;;
16199;SDS011;8207;52.494;4.654;2023-03-21T13:47:34;15.30;;;7.83;;
16199;SDS011;8207;52.494;4.654;2023-03-21T13:50:21;16.50;;;7.80;;
16199;SDS011;8207;52.494;4.654;2023-03-21T13:53:15;18.63;;;8.67;;
16199;SDS011;8207;52.494;4.654;2023-03-21T13:58:50;15.10;;;8.63;;
16199;SDS011;8207;52.494;4.654;2023-03-21T14:01:30;15.67;;;8.23;;
16199;SDS011;8207;52.494;4.654;2023-03-21T14:03:59;14.90;;;7.53;;
16199;SDS011;8207;52.494;4.654;2023-03-21T14:06:44;15.33;;;8.30;;
16199;SDS011;8207;52.494;4.654;2023-03-21T14:09:17;10.00;;;7.07;;
16199;SDS011;8207;52.494;4.654;2023-03-21T14:11:48;13.77;;;7.47;;
16199;SDS011;8207;52.494;4.654;2023-03-21T14:14:18;12.43;;;7.37;;
16199;SDS011;8207;52.494;4.654;2023-03-21T14:16:48;12.00;;;6.90;;
16199;SDS011;8207;52.494;4.654;2023-03-21T14:19:18;12.80;;;7.27;;
16199;SDS011;8207;52.494;4.654;2023-03-21T14:21:45;15.50;;;6.93;;
16199;SDS011;8207;52.494;4.654;2023-03-21T14:24:15;13.70;;;6.37;;
16199;SDS011;8207;52.494;4.654;2023-03-21T14:26:44;12.97;;;6.63;;
16199;SDS011;8207;52.494;4.654;2023-03-21T14:29:15;14.33;;;7.67;;
16199;SDS011;8207;52.494;4.654;2023-03-21T14:31:45;9.83;;;6.40;;
16199;SDS011;8207;52.494;4.654;2023-03-21T14:34:14;13.70;;;6.63;;
16199;SDS011;8207;52.494;4.654;2023-03-21T14:36:42;16.87;;;7.80;;
16199;SDS011;8207;52.494;4.654;2023-03-21T14:39:12;18.23;;;7.57;;
16199;SDS011;8207;52.494;4.654;2023-03-21T14:41:45;14.73;;;7.13;;
16199;SDS011;8207;52.494;4.654;2023-03-21T14:44:18;10.40;;;6.77;;
16199;SDS011;8207;52.494;4.654;2023-03-21T14:46:51;15.33;;;6.40;;
16199;SDS011;8207;52.494;4.654;2023-03-21T14:49:24;18.00;;;8.03;;
16199;SDS011;8207;52.494;4.654;2023-03-21T14:51:53;14.57;;;7.17;;
16199;SDS011;8207;52.494;4.654;2023-03-21T14:54:22;10.57;;;6.53;;
16199;SDS011;8207;52.494;4.654;2023-03-21T14:56:51;13.13;;;7.00;;
16199;SDS011;8207;52.494;4.654;2023-03-21T14:59:24;12.17;;;6.63;;
16199;SDS011;8207;52.494;4.654;2023-03-21T15:01:57;12.40;;;6.93;;
16199;SDS011;8207;52.494;4.654;2023-03-21T15:04:26;13.07;;;6.57;;
16199;SDS011;8207;52.494;4.654;2023-03-21T15:06:55;11.83;;;6.70;;
16199;SDS011;8207;52.494;4.654;2023-03-21T15:09:26;13.77;;;7.90;;